createdAt,value
2019-04-03T00:00:04.402Z,99.90
2019-04-03T00:02:34.272Z,99.90
2019-04-03T00:05:04.596Z,99.90
2019-04-03T00:07:35.169Z,99.90
2019-04-03T00:10:06.622Z,99.90
2019-04-03T00:12:36.195Z,99.90
2019-04-03T00:15:06.356Z,99.90
2019-04-03T00:17:34.900Z,99.90
2019-04-03T00:20:05.085Z,99.90
2019-04-03T00:22:33.619Z,99.90
2019-04-03T00:25:02.047Z,99.90
2019-04-03T00:27:30.502Z,99.90
2019-04-03T00:29:58.942Z,99.90
2019-04-03T00:32:27.394Z,99.90
2019-04-03T00:34:55.844Z,99.90
2019-04-03T00:37:24.298Z,99.90
2019-04-03T00:39:54.454Z,99.90
2019-04-03T00:42:24.599Z,99.90
2019-04-03T00:44:54.692Z,99.90
2019-04-03T00:47:25.076Z,99.90
2019-04-03T00:49:56.195Z,99.90
2019-04-03T00:52:23.790Z,99.90
2019-04-03T00:54:52.220Z,99.90
2019-04-03T00:57:20.671Z,99.90
2019-04-03T00:59:49.185Z,99.90
2019-04-03T01:02:17.634Z,99.90
2019-04-03T01:04:46.258Z,99.90
2019-04-03T01:07:14.793Z,99.90
2019-04-03T01:09:43.222Z,99.90
2019-04-03T01:12:11.758Z,99.90
2019-04-03T01:14:40.237Z,99.90
2019-04-03T01:17:08.778Z,99.90
2019-04-03T01:19:37.214Z,99.90
2019-04-03T01:22:07.412Z,99.90
2019-04-03T01:24:36.780Z,99.90
2019-04-03T01:27:06.287Z,99.90
2019-04-03T01:29:34.728Z,99.90
2019-04-03T01:32:03.172Z,99.90
2019-04-03T01:34:31.636Z,99.90
2019-04-03T01:37:00.120Z,99.90
2019-04-03T01:39:28.720Z,99.90
2019-04-03T01:41:57.206Z,99.90
2019-04-03T01:44:25.683Z,99.90
2019-04-03T01:46:54.130Z,99.90
2019-04-03T01:49:22.571Z,99.90
2019-04-03T01:51:51.014Z,99.90
2019-04-03T01:54:19.468Z,99.90
2019-04-03T01:56:48.008Z,99.90
2019-04-03T01:59:16.531Z,99.90
2019-04-03T02:01:45.105Z,99.90
2019-04-03T02:04:13.603Z,99.90
2019-04-03T02:06:43.630Z,99.90
2019-04-03T02:09:12.447Z,99.90
2019-04-03T02:11:42.399Z,99.90
2019-04-03T02:14:10.861Z,99.90
2019-04-03T02:16:39.443Z,99.90
2019-04-03T02:19:07.947Z,99.90
2019-04-03T02:21:36.396Z,99.90
2019-04-03T02:24:04.857Z,99.90
2019-04-03T02:26:33.477Z,99.90
2019-04-03T02:29:04.321Z,99.90
2019-04-03T02:31:32.087Z,99.90
2019-04-03T02:34:02.303Z,99.90
2019-04-03T02:36:30.710Z,99.90
2019-04-03T02:38:59.162Z,99.90
2019-04-03T02:41:27.693Z,99.90
2019-04-03T02:43:56.361Z,99.90
2019-04-03T02:46:27.503Z,99.90
2019-04-03T02:48:55.011Z,99.90
2019-04-03T02:51:23.439Z,99.90
2019-04-03T02:53:52.229Z,99.90
2019-04-03T02:56:20.686Z,99.90
2019-04-03T02:58:49.242Z,99.90
2019-04-03T03:01:17.817Z,99.90
2019-04-03T03:03:48.503Z,99.90
2019-04-03T03:06:16.491Z,99.90
2019-04-03T03:08:45.233Z,99.90
2019-04-03T03:11:13.920Z,99.90
2019-04-03T03:13:43.804Z,99.90
2019-04-03T03:16:14.530Z,99.90
2019-04-03T03:18:42.718Z,99.90
2019-04-03T03:21:13.131Z,99.90
2019-04-03T03:23:42.048Z,99.90
2019-04-03T03:26:10.817Z,99.90
2019-04-03T03:28:39.479Z,99.90
2019-04-03T03:31:09.591Z,99.90
2019-04-03T03:33:40.941Z,99.90
2019-04-03T03:36:09.229Z,99.90
2019-04-03T03:38:40.172Z,99.90
2019-04-03T03:41:09.549Z,99.90
2019-04-03T03:43:38.966Z,99.90
2019-04-03T03:46:07.757Z,99.90
2019-04-03T03:48:36.685Z,99.90
2019-04-03T03:51:05.458Z,99.90
2019-04-03T03:53:34.068Z,99.90
2019-04-03T03:56:02.922Z,99.90
2019-04-03T03:58:31.726Z,99.90
2019-04-03T04:01:01.103Z,99.90
2019-04-03T04:03:29.925Z,99.90
2019-04-03T04:05:58.392Z,99.90
2019-04-03T04:08:28.031Z,99.90
2019-04-03T04:10:59.555Z,99.90
2019-04-03T04:13:27.137Z,99.90
2019-04-03T04:15:56.447Z,99.90
2019-04-03T04:18:25.140Z,99.90
2019-04-03T04:20:53.763Z,99.90
2019-04-03T04:23:24.753Z,99.90
2019-04-03T04:25:53.598Z,99.90
2019-04-03T04:28:22.683Z,99.90
2019-04-03T04:30:51.651Z,99.90
2019-04-03T04:33:20.139Z,99.90
2019-04-03T04:35:51.329Z,99.90
2019-04-03T04:38:18.763Z,99.90
2019-04-03T04:40:47.211Z,99.90
2019-04-03T04:43:15.679Z,99.90
2019-04-03T04:45:44.333Z,99.90
2019-04-03T04:48:15.622Z,99.90
2019-04-03T04:50:43.110Z,99.90
2019-04-03T04:53:11.571Z,99.90
2019-04-03T04:55:40.011Z,99.90
2019-04-03T04:58:09.665Z,99.90
2019-04-03T05:00:38.639Z,99.90
2019-04-03T05:03:07.089Z,99.90
2019-04-03T05:05:35.863Z,99.90
2019-04-03T05:08:04.518Z,99.90
2019-04-03T05:10:32.962Z,99.90
2019-04-03T05:13:01.604Z,99.90
2019-04-03T05:15:30.498Z,99.90
2019-04-03T05:17:59.071Z,99.90
2019-04-03T05:20:27.577Z,99.90
2019-04-03T05:22:56.061Z,99.90
2019-04-03T05:25:24.689Z,99.90
2019-04-03T05:27:53.146Z,99.90
2019-04-03T05:30:29.175Z,99.90
2019-04-03T05:32:58.175Z,99.90
2019-04-03T05:35:26.819Z,99.90
2019-04-03T05:37:55.374Z,99.90
2019-04-03T05:40:26.107Z,99.90
2019-04-03T05:42:54.419Z,99.90
2019-04-03T05:45:22.856Z,99.90
2019-04-03T05:47:51.315Z,99.90
2019-04-03T05:50:19.758Z,99.90
2019-04-03T05:52:48.222Z,99.90
2019-04-03T05:55:16.711Z,99.90
2019-04-03T05:57:46.053Z,99.90
2019-04-03T06:00:14.961Z,99.90
2019-04-03T06:02:43.410Z,99.90
2019-04-03T06:05:12.891Z,99.90
2019-04-03T06:07:41.649Z,99.90
2019-04-03T06:10:10.507Z,99.90
2019-04-03T06:12:38.982Z,99.90
2019-04-03T06:15:09.827Z,99.90
2019-04-03T06:17:38.965Z,99.90
2019-04-03T06:20:10.267Z,99.90
2019-04-03T06:22:37.953Z,99.90
2019-04-03T06:25:07.157Z,99.90
2019-04-03T06:27:35.616Z,99.90
2019-04-03T06:30:06.877Z,99.90
2019-04-03T06:32:35.447Z,99.90
2019-04-03T06:35:04.193Z,99.90
2019-04-03T06:37:32.636Z,99.90
2019-04-03T06:40:02.845Z,99.90
2019-04-03T06:42:31.267Z,99.90
2019-04-03T06:44:59.726Z,99.90
2019-04-03T06:47:28.201Z,99.90
2019-04-03T06:49:56.670Z,99.90
2019-04-03T06:52:25.455Z,99.90
2019-04-03T06:54:53.964Z,99.90
2019-04-03T06:57:22.407Z,99.90
2019-04-03T06:59:52.158Z,99.90
2019-04-03T07:02:20.764Z,99.90
2019-04-03T07:04:49.219Z,99.90
2019-04-03T07:07:31.752Z,99.90
2019-04-03T07:09:50.330Z,99.90
2019-04-03T07:12:18.176Z,99.90
2019-04-03T07:14:46.633Z,99.90
2019-04-03T07:17:15.087Z,99.90
2019-04-03T07:19:43.563Z,99.90
2019-04-03T07:22:12.070Z,99.90
2019-04-03T07:24:40.602Z,99.90
2019-04-03T07:27:09.208Z,99.90
2019-04-03T07:29:37.712Z,99.90
2019-04-03T07:32:06.147Z,99.90
2019-04-03T07:34:34.764Z,99.90
2019-04-03T07:37:03.233Z,99.90
2019-04-03T07:39:31.777Z,99.90
2019-04-03T07:42:00.450Z,99.90
2019-04-03T07:44:30.681Z,99.90
2019-04-03T07:46:59.338Z,99.90
2019-04-03T07:49:27.839Z,99.90
2019-04-03T07:51:56.541Z,99.90
2019-04-03T07:54:26.778Z,99.90
2019-04-03T07:56:57.323Z,99.90
2019-04-03T07:59:27.434Z,99.90
2019-04-03T08:01:56.170Z,99.90
2019-04-03T08:04:25.359Z,99.90
2019-04-03T08:06:54.107Z,99.90
2019-04-03T08:09:22.581Z,99.90
2019-04-03T08:11:51.287Z,99.90
2019-04-03T08:14:20.279Z,99.90
2019-04-03T08:16:48.859Z,99.90
2019-04-03T08:19:17.897Z,99.90
2019-04-03T08:21:46.483Z,99.90
2019-04-03T08:24:14.917Z,99.90
2019-04-03T08:26:43.384Z,99.90
2019-04-03T08:29:12.080Z,99.90
2019-04-03T08:31:42.601Z,99.90
2019-04-03T08:34:16.621Z,99.90
2019-04-03T08:36:40.997Z,99.90
2019-04-03T08:39:09.510Z,99.90
2019-04-03T08:41:38.433Z,99.90
2019-04-03T08:44:08.422Z,99.90
2019-04-03T08:46:37.479Z,99.90
2019-04-03T08:49:06.107Z,99.90
2019-04-03T08:51:34.990Z,99.90
2019-04-03T08:54:03.510Z,99.90
2019-04-03T08:56:32.295Z,99.90
2019-04-03T08:59:00.750Z,99.90
2019-04-03T09:01:29.279Z,99.90
2019-04-03T09:03:57.800Z,99.90
2019-04-03T09:06:26.263Z,99.90
2019-04-03T09:08:57.275Z,99.90
2019-04-03T09:11:25.475Z,99.90
2019-04-03T09:13:54.816Z,99.90
2019-04-03T09:16:24.593Z,99.90
2019-04-03T09:18:53.105Z,99.90
2019-04-03T09:21:21.730Z,99.90
2019-04-03T09:23:50.190Z,99.90
2019-04-03T09:26:18.656Z,99.90
2019-04-03T09:28:47.182Z,99.90
2019-04-03T09:31:17.155Z,99.90
2019-04-03T09:33:46.025Z,99.90
2019-04-03T09:36:14.655Z,99.90
2019-04-03T09:38:43.140Z,99.90
2019-04-03T09:41:17.131Z,99.90
2019-04-03T09:43:45.851Z,99.90
2019-04-03T09:46:14.465Z,99.90
2019-04-03T09:48:42.954Z,99.90
2019-04-03T09:51:11.684Z,99.90
2019-04-03T09:53:40.285Z,99.90
2019-04-03T09:56:09.244Z,99.90
2019-04-03T09:58:37.802Z,99.90
2019-04-03T10:01:06.785Z,99.90
2019-04-03T10:03:35.333Z,99.90
2019-04-03T10:06:03.890Z,99.90
2019-04-03T10:08:32.389Z,99.90
2019-04-03T10:11:00.905Z,99.90
2019-04-03T10:13:29.379Z,99.90
2019-04-03T10:15:58.262Z,99.90
2019-04-03T10:18:26.783Z,99.90
2019-04-03T10:20:55.325Z,99.90
2019-04-03T10:23:23.886Z,99.90
2019-04-03T10:25:53.233Z,99.90
2019-04-03T10:28:22.170Z,99.90
2019-04-03T10:30:53.160Z,99.90
2019-04-03T10:33:21.168Z,99.90
2019-04-03T10:35:50.050Z,98.70
2019-04-03T10:38:19.023Z,97.70
2019-04-03T10:40:47.725Z,97.50
2019-04-03T10:43:16.528Z,98.30
2019-04-03T10:45:45.335Z,97.60
2019-04-03T10:48:13.854Z,98.20
2019-04-03T10:50:42.635Z,97.60
2019-04-03T10:53:11.151Z,97.40
2019-04-03T10:55:40.091Z,95.70
2019-04-03T10:58:09.154Z,98.80
2019-04-03T11:00:38.206Z,96.90
2019-04-03T11:03:06.762Z,99.50
2019-04-03T11:05:35.368Z,99.90
2019-04-03T11:08:03.875Z,99.90
2019-04-03T11:10:32.432Z,99.90
2019-04-03T11:13:03.245Z,99.90
2019-04-03T11:15:31.379Z,99.90
2019-04-03T11:17:59.892Z,99.90
2019-04-03T11:20:28.453Z,99.90
2019-04-03T11:25:27.251Z,99.90
2019-04-03T11:27:56.297Z,99.90
2019-04-03T11:30:26.362Z,99.90
2019-04-03T11:30:55.506Z,99.90
2019-04-03T11:32:55.009Z,99.90
2019-04-03T11:35:23.767Z,99.90
2019-04-03T11:37:52.236Z,99.90
2019-04-03T11:40:24.832Z,99.90
2019-04-03T11:42:54.373Z,99.90
2019-04-03T11:45:23.527Z,99.90
2019-04-03T11:47:52.374Z,99.90
2019-04-03T11:50:23.453Z,99.90
2019-04-03T11:52:52.272Z,99.90
2019-04-03T11:55:21.090Z,99.90
2019-04-03T11:57:50.011Z,99.90
2019-04-03T12:00:20.905Z,99.90
2019-04-03T12:02:49.451Z,99.90
2019-04-03T12:05:20.698Z,99.90
2019-04-03T12:07:48.278Z,99.90
2019-04-03T12:10:18.243Z,99.90
2019-04-03T12:12:47.005Z,99.90
2019-04-03T12:15:16.522Z,99.90
2019-04-03T12:17:45.481Z,99.90
2019-04-03T12:20:16.479Z,99.90
2019-04-03T12:22:45.190Z,99.90
2019-04-03T12:25:14.441Z,99.90
2019-04-03T12:27:44.897Z,99.90
2019-04-03T12:30:13.969Z,99.90
2019-04-03T12:32:47.516Z,99.90
2019-04-03T12:35:12.848Z,99.90
2019-04-03T12:37:41.573Z,99.90
2019-04-03T12:40:10.761Z,99.90
2019-04-03T12:42:39.554Z,99.90
2019-04-03T12:45:08.515Z,99.90
2019-04-03T12:47:37.004Z,99.90
2019-04-03T12:50:07.620Z,99.90
2019-04-03T12:52:37.141Z,99.90
2019-04-03T12:55:07.498Z,99.90
2019-04-03T12:57:38.812Z,99.90
2019-04-03T13:00:11.441Z,99.90
2019-04-03T13:02:40.195Z,99.90
2019-04-03T13:05:09.212Z,99.90
2019-04-03T13:07:37.832Z,99.90
2019-04-03T13:10:09.140Z,99.90
2019-04-03T13:12:38.017Z,99.90
2019-04-03T13:15:09.299Z,99.90
2019-04-03T13:17:38.206Z,99.90
2019-04-03T13:20:08.091Z,99.90
2019-04-03T13:22:36.735Z,99.90
2019-04-03T13:25:07.494Z,99.90
2019-04-03T13:27:36.161Z,99.90
2019-04-03T13:30:11.072Z,99.90
2019-04-03T13:32:38.513Z,99.90
2019-04-03T13:35:07.678Z,99.90
2019-04-03T13:37:36.329Z,99.90
2019-04-03T13:40:07.486Z,99.90
2019-04-03T13:42:36.497Z,99.90
2019-04-03T13:45:08.201Z,99.90
2019-04-03T13:47:39.765Z,99.90
2019-04-03T13:50:15.551Z,99.90
2019-04-03T13:52:48.464Z,99.90
2019-04-03T13:55:14.840Z,99.90
2019-04-03T13:57:43.311Z,99.90
2019-04-03T14:00:19.665Z,99.90
2019-04-03T14:02:44.866Z,99.90
2019-04-03T14:05:12.975Z,99.90
2019-04-03T14:07:42.394Z,99.90
2019-04-03T14:10:11.331Z,99.90
2019-04-03T14:12:43.558Z,99.90
2019-04-03T14:15:10.028Z,99.90
2019-04-03T14:17:38.589Z,99.90
2019-04-03T14:20:08.153Z,99.90
2019-04-03T14:22:37.306Z,99.90
2019-04-03T14:25:17.947Z,99.90
2019-04-03T14:27:37.426Z,99.90
2019-04-03T14:30:11.598Z,99.90
2019-04-03T14:32:39.427Z,99.90
2019-04-03T14:35:38.298Z,99.90
2019-04-03T14:37:38.689Z,99.90
2019-04-03T14:40:11.162Z,99.90
2019-04-03T14:42:38.471Z,99.90
2019-04-03T14:45:07.963Z,99.90
2019-04-03T14:47:36.542Z,99.90
2019-04-03T14:50:07.215Z,99.90
2019-04-03T14:52:36.227Z,99.90
2019-04-03T14:55:17.078Z,99.90
2019-04-03T14:57:37.116Z,99.90
2019-04-03T15:00:23.539Z,99.90
2019-04-03T15:02:40.059Z,99.90
2019-04-03T15:05:09.357Z,99.90
2019-04-03T15:07:37.875Z,99.90
2019-04-03T15:10:07.409Z,99.90
2019-04-03T15:12:38.598Z,99.90
2019-04-03T15:15:07.983Z,99.90
2019-04-03T15:17:37.674Z,99.90
2019-04-03T15:20:10.589Z,99.90
2019-04-03T15:22:39.430Z,99.90
2019-04-03T15:25:08.757Z,99.90
2019-04-03T15:27:38.129Z,99.90
2019-04-03T15:30:10.509Z,99.90
2019-04-03T15:32:39.050Z,99.90
2019-04-03T15:35:08.057Z,99.90
2019-04-03T15:37:39.928Z,99.90
2019-04-03T15:40:07.963Z,99.90
2019-04-03T15:42:39.255Z,99.90
2019-04-03T15:45:09.017Z,99.90
2019-04-03T15:47:41.692Z,99.90
2019-04-03T15:50:08.544Z,99.90
2019-04-03T15:52:37.153Z,99.90
2019-04-03T15:55:08.589Z,99.90
2019-04-03T15:57:39.635Z,99.90
2019-04-03T16:00:12.553Z,99.90
2019-04-03T16:02:44.525Z,99.90
2019-04-03T16:05:11.966Z,99.90
2019-04-03T16:07:41.696Z,99.90
2019-04-03T16:10:11.024Z,99.90
2019-04-03T16:12:42.902Z,99.90
2019-04-03T16:15:10.700Z,99.90
2019-04-03T16:17:39.766Z,99.90
2019-04-03T16:20:08.522Z,99.90
2019-04-03T16:22:36.999Z,99.90
2019-04-03T16:25:06.955Z,99.90
2019-04-03T16:27:35.544Z,99.90
2019-04-03T16:30:07.321Z,99.90
2019-04-03T16:32:36.540Z,99.90
2019-04-03T16:35:12.577Z,99.90
2019-04-03T16:37:39.450Z,99.90
2019-04-03T16:40:09.445Z,99.90
2019-04-03T16:42:38.089Z,99.90
2019-04-03T16:45:10.581Z,99.90
2019-04-03T16:47:39.295Z,99.90
2019-04-03T16:50:08.992Z,99.90
2019-04-03T16:52:38.198Z,99.90
2019-04-03T16:55:09.120Z,99.90
2019-04-03T16:57:38.274Z,99.90
2019-04-03T17:00:09.505Z,99.90
2019-04-03T17:02:38.306Z,99.90
2019-04-03T17:05:10.414Z,99.90
2019-04-03T17:07:38.465Z,99.90
2019-04-03T17:10:09.469Z,99.90
2019-04-03T17:12:37.747Z,99.90
2019-04-03T17:15:08.415Z,99.90
2019-04-03T17:17:36.966Z,99.90
2019-04-03T17:20:07.914Z,99.90
2019-04-03T17:22:39.115Z,99.90
2019-04-03T17:25:07.921Z,99.90
2019-04-03T17:27:36.423Z,99.90
2019-04-03T17:30:11.260Z,99.90
2019-04-03T17:32:40.036Z,99.90
2019-04-03T17:35:08.909Z,99.90
2019-04-03T17:37:37.486Z,99.90
2019-04-03T17:40:10.646Z,99.90
2019-04-03T17:42:40.137Z,99.90
2019-04-03T17:45:09.265Z,99.90
2019-04-03T17:47:37.832Z,99.90
2019-04-03T17:50:07.619Z,99.90
2019-04-03T17:52:36.940Z,99.90
2019-04-03T17:55:10.770Z,99.90
2019-04-03T17:57:39.573Z,99.90
2019-04-03T18:00:13.083Z,99.90
2019-04-03T18:02:41.563Z,99.90
2019-04-03T18:05:10.452Z,99.90
2019-04-03T18:07:38.935Z,99.90
2019-04-03T18:10:12.522Z,99.90
2019-04-03T18:12:38.820Z,99.90
2019-04-03T18:15:08.930Z,99.90
2019-04-03T18:17:37.521Z,99.90
2019-04-03T18:20:07.167Z,99.90
2019-04-03T18:22:37.513Z,99.90
2019-04-03T18:25:08.346Z,99.90
2019-04-03T18:27:36.972Z,99.90
2019-04-03T18:30:11.341Z,99.90
2019-04-03T18:32:38.232Z,99.90
2019-04-03T18:35:07.472Z,99.90
2019-04-03T18:37:35.963Z,99.90
2019-04-03T18:40:06.821Z,99.90
2019-04-03T18:42:35.284Z,99.90
2019-04-03T18:45:04.740Z,99.90
2019-04-03T18:47:40.991Z,99.90
2019-04-03T18:50:03.945Z,99.90
2019-04-03T18:52:32.432Z,99.90
2019-04-03T18:55:00.873Z,99.90
2019-04-03T18:57:29.354Z,99.90
2019-04-03T19:00:00.445Z,99.90
2019-04-03T19:02:27.974Z,99.90
2019-04-03T19:05:02.341Z,99.90
2019-04-03T19:07:26.639Z,99.90
2019-04-03T19:10:06.369Z,99.90
2019-04-03T19:12:35.049Z,99.90
2019-04-03T19:14:55.878Z,99.90
2019-04-03T19:17:24.863Z,99.90
2019-04-03T19:20:04.029Z,99.90
2019-04-03T19:22:25.791Z,99.90
2019-04-03T19:24:54.300Z,99.90
2019-04-03T19:27:22.826Z,99.90
2019-04-03T19:29:51.376Z,99.90
2019-04-03T19:32:20.480Z,99.90
2019-04-03T19:34:51.983Z,99.90
2019-04-03T19:37:19.567Z,99.90
2019-04-03T19:39:48.102Z,99.90
2019-04-03T19:42:16.546Z,99.90
2019-04-03T19:44:45.019Z,99.90
2019-04-03T19:47:13.456Z,99.90
2019-04-03T19:49:41.933Z,99.90
2019-04-03T19:52:10.375Z,99.90
2019-04-03T19:54:38.833Z,99.90
2019-04-03T19:57:07.293Z,99.90
2019-04-03T19:59:35.767Z,99.90
2019-04-03T20:02:04.352Z,99.90
2019-04-03T20:04:32.800Z,99.90
2019-04-03T20:07:01.262Z,99.90
2019-04-03T20:09:31.944Z,99.90
2019-04-03T20:11:59.961Z,99.90
2019-04-03T20:14:28.433Z,99.90
2019-04-03T20:16:58.479Z,99.90
2019-04-03T20:19:27.348Z,99.90
2019-04-03T20:21:55.941Z,99.90
2019-04-03T20:24:25.372Z,99.90
2019-04-03T20:26:53.948Z,99.90
2019-04-03T20:29:22.472Z,99.90
2019-04-03T20:31:50.941Z,99.90
2019-04-03T20:34:19.480Z,99.90
2019-04-03T20:36:51.009Z,99.90
2019-04-03T20:39:18.097Z,99.90
2019-04-03T20:41:46.563Z,99.90
2019-04-03T20:44:16.939Z,99.90
2019-04-03T20:46:46.749Z,99.90
2019-04-03T20:49:15.208Z,99.90
2019-04-03T20:51:43.670Z,99.90
2019-04-03T20:54:12.117Z,99.90
2019-04-03T20:56:40.634Z,99.90
2019-04-03T20:59:11.194Z,99.90
2019-04-03T21:01:39.267Z,99.90
2019-04-03T21:04:07.710Z,99.90
2019-04-03T21:06:37.386Z,99.90
2019-04-03T21:09:07.136Z,99.90
2019-04-03T21:11:35.598Z,99.90
2019-04-03T21:14:05.590Z,99.90
2019-04-03T21:16:34.476Z,99.90
2019-04-03T21:19:02.961Z,99.90
2019-04-03T21:21:31.477Z,99.90
2019-04-03T21:23:59.970Z,99.90
2019-04-03T21:26:28.443Z,99.90
2019-04-03T21:28:56.957Z,99.90
2019-04-03T21:31:25.960Z,99.90
2019-04-03T21:33:55.468Z,99.90
2019-04-03T21:36:23.930Z,99.90
2019-04-03T21:38:52.363Z,99.90
2019-04-03T21:41:21.380Z,99.90
2019-04-03T21:43:49.841Z,99.90
2019-04-03T21:46:18.299Z,99.90
2019-04-03T21:48:46.783Z,99.90
2019-04-03T21:51:15.229Z,99.90
2019-04-03T21:53:44.164Z,99.90
2019-04-03T21:56:12.787Z,99.90
2019-04-03T21:58:41.287Z,99.90
2019-04-03T22:01:15.348Z,99.90
2019-04-03T22:03:43.883Z,99.90
2019-04-03T22:06:12.373Z,99.90
2019-04-03T22:08:40.824Z,99.90
2019-04-03T22:11:09.415Z,99.90
2019-04-03T22:13:38.474Z,99.90
2019-04-03T22:16:07.581Z,99.90
2019-04-03T22:18:36.211Z,99.90
2019-04-03T22:21:04.669Z,99.90
2019-04-03T22:23:35.546Z,99.90
2019-04-03T22:26:03.371Z,99.90
2019-04-03T22:28:31.835Z,99.90
2019-04-03T22:31:00.295Z,99.90
2019-04-03T22:33:28.757Z,99.90
2019-04-03T22:35:57.362Z,99.90
2019-04-03T22:38:25.827Z,99.90
2019-04-03T22:40:54.283Z,99.90
2019-04-03T22:43:22.767Z,99.90
2019-04-03T22:45:51.295Z,99.90
2019-04-03T22:48:19.827Z,99.90
2019-04-03T22:50:48.272Z,99.90
2019-04-03T22:53:16.730Z,99.90
2019-04-03T22:55:46.549Z,99.90
2019-04-03T22:58:15.523Z,99.90
2019-04-03T23:00:43.975Z,99.90
2019-04-03T23:03:13.437Z,99.90
2019-04-03T23:05:42.014Z,99.90
2019-04-03T23:08:10.481Z,99.90
2019-04-03T23:10:38.922Z,99.90
2019-04-03T23:13:07.386Z,99.90
2019-04-03T23:15:35.842Z,99.90
2019-04-03T23:18:04.363Z,99.90
2019-04-03T23:20:32.890Z,99.90
2019-04-03T23:23:01.335Z,99.90
2019-04-03T23:25:30.242Z,99.90
2019-04-03T23:27:59.007Z,99.90
2019-04-03T23:30:27.511Z,99.90
2019-04-03T23:32:55.960Z,99.90
2019-04-03T23:35:24.512Z,99.90
2019-04-03T23:37:53.894Z,99.90
2019-04-03T23:40:23.170Z,99.90
2019-04-03T23:42:51.684Z,99.90
2019-04-03T23:45:21.050Z,99.90
2019-04-03T23:47:49.499Z,99.90
2019-04-03T23:50:17.971Z,99.90
2019-04-03T23:52:46.436Z,99.90
2019-04-03T23:55:14.895Z,99.90
2019-04-03T23:57:43.349Z,99.90
